sensor_id;sensor_type;location;lat;lon;timestamp;P1;durP1;ratioP1;P2;durP2;ratioP2
55268;SDS011;41131;42.990;21.954;2023-03-01T00:01:22;56.05;;;31.90;;
55268;SDS011;41131;42.990;21.954;2023-03-01T00:03:49;54.28;;;32.55;;
55268;SDS011;41131;42.990;21.954;2023-03-01T00:06:15;55.38;;;31.08;;
55268;SDS011;41131;42.990;21.954;2023-03-01T00:08:42;50.75;;;30.27;;
55268;SDS011;41131;42.990;21.954;2023-03-01T00:11:10;58.22;;;32.28;;
55268;SDS011;41131;42.990;21.954;2023-03-01T00:13:37;54.08;;;29.52;;
55268;SDS011;41131;42.990;21.954;2023-03-01T00:16:07;48.13;;;28.13;;
55268;SDS011;41131;42.990;21.954;2023-03-01T00:18:33;50.97;;;27.73;;
55268;SDS011;41131;42.990;21.954;2023-03-01T00:20:59;46.97;;;26.48;;
55268;SDS011;41131;42.990;21.954;2023-03-01T00:23:25;49.83;;;25.60;;
55268;SDS011;41131;42.990;21.954;2023-03-01T00:25:52;45.17;;;25.65;;
55268;SDS011;41131;42.990;21.954;2023-03-01T00:28:18;53.38;;;29.02;;
55268;SDS011;41131;42.990;21.954;2023-03-01T00:30:45;52.35;;;29.05;;
55268;SDS011;41131;42.990;21.954;2023-03-01T00:33:11;48.20;;;25.92;;
55268;SDS011;41131;42.990;21.954;2023-03-01T00:35:37;43.90;;;26.50;;
55268;SDS011;41131;42.990;21.954;2023-03-01T00:38:03;46.63;;;27.08;;
55268;SDS011;41131;42.990;21.954;2023-03-01T00:40:30;41.40;;;25.08;;
55268;SDS011;41131;42.990;21.954;2023-03-01T00:42:57;37.40;;;24.27;;
55268;SDS011;41131;42.990;21.954;2023-03-01T00:45:23;67.43;;;27.08;;
55268;SDS011;41131;42.990;21.954;2023-03-01T00:47:50;50.80;;;31.60;;
55268;SDS011;41131;42.990;21.954;2023-03-01T00:50:16;47.70;;;30.15;;
55268;SDS011;41131;42.990;21.954;2023-03-01T00:52:43;40.58;;;25.35;;
55268;SDS011;41131;42.990;21.954;2023-03-01T00:55:09;36.15;;;23.90;;
55268;SDS011;41131;42.990;21.954;2023-03-01T00:57:36;44.47;;;25.63;;
55268;SDS011;41131;42.990;21.954;2023-03-01T01:00:03;48.80;;;31.02;;
55268;SDS011;41131;42.990;21.954;2023-03-01T01:02:31;56.55;;;30.58;;
55268;SDS011;41131;42.990;21.954;2023-03-01T01:04:57;49.40;;;29.42;;
55268;SDS011;41131;42.990;21.954;2023-03-01T01:07:23;44.50;;;28.13;;
55268;SDS011;41131;42.990;21.954;2023-03-01T01:09:49;54.50;;;30.98;;
55268;SDS011;41131;42.990;21.954;2023-03-01T01:12:18;54.30;;;32.55;;
55268;SDS011;41131;42.990;21.954;2023-03-01T01:14:44;43.75;;;25.48;;
55268;SDS011;41131;42.990;21.954;2023-03-01T01:17:10;38.35;;;24.65;;
55268;SDS011;41131;42.990;21.954;2023-03-01T01:19:36;39.17;;;25.42;;
55268;SDS011;41131;42.990;21.954;2023-03-01T01:22:02;45.72;;;26.75;;
55268;SDS011;41131;42.990;21.954;2023-03-01T01:24:28;45.40;;;28.05;;
55268;SDS011;41131;42.990;21.954;2023-03-01T01:26:54;39.10;;;24.85;;
55268;SDS011;41131;42.990;21.954;2023-03-01T01:29:21;38.78;;;25.25;;
55268;SDS011;41131;42.990;21.954;2023-03-01T01:31:47;39.58;;;24.55;;
55268;SDS011;41131;42.990;21.954;2023-03-01T01:34:17;43.00;;;27.63;;
55268;SDS011;41131;42.990;21.954;2023-03-01T01:36:44;44.42;;;28.75;;
55268;SDS011;41131;42.990;21.954;2023-03-01T01:39:13;41.03;;;25.88;;
55268;SDS011;41131;42.990;21.954;2023-03-01T01:41:40;37.67;;;25.20;;
55268;SDS011;41131;42.990;21.954;2023-03-01T01:46:39;36.83;;;23.98;;
55268;SDS011;41131;42.990;21.954;2023-03-01T01:51:42;41.83;;;28.25;;
55268;SDS011;41131;42.990;21.954;2023-03-01T01:54:12;36.53;;;23.65;;
55268;SDS011;41131;42.990;21.954;2023-03-01T01:56:40;36.60;;;23.63;;
55268;SDS011;41131;42.990;21.954;2023-03-01T01:59:08;43.70;;;26.83;;
55268;SDS011;41131;42.990;21.954;2023-03-01T02:01:35;56.95;;;30.52;;
55268;SDS011;41131;42.990;21.954;2023-03-01T02:04:01;54.47;;;30.27;;
55268;SDS011;41131;42.990;21.954;2023-03-01T02:06:31;48.25;;;29.38;;
55268;SDS011;41131;42.990;21.954;2023-03-01T02:08:59;51.40;;;29.75;;
55268;SDS011;41131;42.990;21.954;2023-03-01T02:11:25;58.85;;;30.23;;
55268;SDS011;41131;42.990;21.954;2023-03-01T02:13:52;56.70;;;30.15;;
55268;SDS011;41131;42.990;21.954;2023-03-01T02:16:19;56.20;;;31.08;;
55268;SDS011;41131;42.990;21.954;2023-03-01T02:18:46;49.35;;;29.13;;
55268;SDS011;41131;42.990;21.954;2023-03-01T02:23:58;56.55;;;32.15;;
55268;SDS011;41131;42.990;21.954;2023-03-01T02:26:34;57.05;;;32.38;;
55268;SDS011;41131;42.990;21.954;2023-03-01T02:29:02;67.15;;;34.00;;
55268;SDS011;41131;42.990;21.954;2023-03-01T02:31:28;64.45;;;38.25;;
55268;SDS011;41131;42.990;21.954;2023-03-01T02:34:13;58.28;;;33.13;;
55268;SDS011;41131;42.990;21.954;2023-03-01T02:36:44;53.53;;;31.40;;
55268;SDS011;41131;42.990;21.954;2023-03-01T02:39:12;42.13;;;27.52;;
55268;SDS011;41131;42.990;21.954;2023-03-01T02:41:42;37.47;;;23.50;;
55268;SDS011;41131;42.990;21.954;2023-03-01T02:44:08;28.30;;;20.02;;
55268;SDS011;41131;42.990;21.954;2023-03-01T02:46:41;34.63;;;19.95;;
55268;SDS011;41131;42.990;21.954;2023-03-01T02:56:50;32.53;;;22.23;;
55268;SDS011;41131;42.990;21.954;2023-03-01T02:59:17;35.53;;;21.00;;
55268;SDS011;41131;42.990;21.954;2023-03-01T03:01:45;30.05;;;20.50;;
55268;SDS011;41131;42.990;21.954;2023-03-01T03:04:13;28.55;;;20.25;;
55268;SDS011;41131;42.990;21.954;2023-03-01T03:06:42;31.70;;;22.02;;
55268;SDS011;41131;42.990;21.954;2023-03-01T03:09:08;29.48;;;19.95;;
55268;SDS011;41131;42.990;21.954;2023-03-01T03:11:34;34.75;;;21.88;;
55268;SDS011;41131;42.990;21.954;2023-03-01T03:14:02;31.25;;;21.67;;
55268;SDS011;41131;42.990;21.954;2023-03-01T03:16:28;42.28;;;21.40;;
55268;SDS011;41131;42.990;21.954;2023-03-01T03:18:54;27.10;;;19.13;;
55268;SDS011;41131;42.990;21.954;2023-03-01T03:21:29;31.35;;;20.83;;
55268;SDS011;41131;42.990;21.954;2023-03-01T03:23:55;33.03;;;20.60;;
55268;SDS011;41131;42.990;21.954;2023-03-01T03:26:24;29.67;;;20.00;;
55268;SDS011;41131;42.990;21.954;2023-03-01T03:28:50;32.58;;;21.38;;
55268;SDS011;41131;42.990;21.954;2023-03-01T03:31:16;30.23;;;19.83;;
55268;SDS011;41131;42.990;21.954;2023-03-01T03:33:42;27.70;;;19.13;;
55268;SDS011;41131;42.990;21.954;2023-03-01T03:36:08;31.30;;;18.63;;
55268;SDS011;41131;42.990;21.954;2023-03-01T03:38:38;31.42;;;19.83;;
55268;SDS011;41131;42.990;21.954;2023-03-01T03:41:06;30.80;;;19.92;;
55268;SDS011;41131;42.990;21.954;2023-03-01T03:43:33;29.20;;;20.48;;
55268;SDS011;41131;42.990;21.954;2023-03-01T03:46:00;28.10;;;19.40;;
55268;SDS011;41131;42.990;21.954;2023-03-01T03:48:30;31.88;;;20.52;;
55268;SDS011;41131;42.990;21.954;2023-03-01T03:50:56;35.45;;;19.67;;
55268;SDS011;41131;42.990;21.954;2023-03-01T03:53:23;39.53;;;22.63;;
55268;SDS011;41131;42.990;21.954;2023-03-01T03:55:50;36.78;;;25.65;;
55268;SDS011;41131;42.990;21.954;2023-03-01T03:58:17;39.83;;;25.05;;
55268;SDS011;41131;42.990;21.954;2023-03-01T04:00:45;41.50;;;26.40;;
55268;SDS011;41131;42.990;21.954;2023-03-01T04:03:11;39.00;;;25.83;;
55268;SDS011;41131;42.990;21.954;2023-03-01T04:05:38;37.65;;;25.42;;
55268;SDS011;41131;42.990;21.954;2023-03-01T04:08:05;37.50;;;24.83;;
55268;SDS011;41131;42.990;21.954;2023-03-01T04:13:01;36.90;;;24.63;;
55268;SDS011;41131;42.990;21.954;2023-03-01T04:15:28;37.35;;;26.20;;
55268;SDS011;41131;42.990;21.954;2023-03-01T04:17:54;38.15;;;25.77;;
55268;SDS011;41131;42.990;21.954;2023-03-01T04:20:23;39.03;;;25.52;;
55268;SDS011;41131;42.990;21.954;2023-03-01T04:22:59;38.55;;;25.13;;
55268;SDS011;41131;42.990;21.954;2023-03-01T04:25:35;36.17;;;24.20;;
55268;SDS011;41131;42.990;21.954;2023-03-01T04:28:01;33.83;;;23.98;;
55268;SDS011;41131;42.990;21.954;2023-03-01T04:30:27;38.97;;;23.63;;
55268;SDS011;41131;42.990;21.954;2023-03-01T04:32:53;36.40;;;22.75;;
55268;SDS011;41131;42.990;21.954;2023-03-01T04:35:19;38.13;;;21.67;;
55268;SDS011;41131;42.990;21.954;2023-03-01T04:37:45;36.20;;;22.35;;
55268;SDS011;41131;42.990;21.954;2023-03-01T04:40:12;42.97;;;19.88;;
55268;SDS011;41131;42.990;21.954;2023-03-01T04:42:41;43.10;;;21.00;;
55268;SDS011;41131;42.990;21.954;2023-03-01T04:45:07;36.35;;;19.77;;
55268;SDS011;41131;42.990;21.954;2023-03-01T04:47:38;35.33;;;20.15;;
55268;SDS011;41131;42.990;21.954;2023-03-01T04:50:05;32.45;;;19.38;;
55268;SDS011;41131;42.990;21.954;2023-03-01T04:52:31;40.13;;;21.98;;
55268;SDS011;41131;42.990;21.954;2023-03-01T04:54:57;37.30;;;20.38;;
55268;SDS011;41131;42.990;21.954;2023-03-01T04:57:23;37.97;;;24.92;;
55268;SDS011;41131;42.990;21.954;2023-03-01T04:59:49;42.75;;;25.48;;
55268;SDS011;41131;42.990;21.954;2023-03-01T05:02:15;36.83;;;23.20;;
55268;SDS011;41131;42.990;21.954;2023-03-01T05:04:41;31.63;;;21.25;;
55268;SDS011;41131;42.990;21.954;2023-03-01T05:07:07;30.50;;;18.60;;
55268;SDS011;41131;42.990;21.954;2023-03-01T05:09:33;33.40;;;21.20;;
55268;SDS011;41131;42.990;21.954;2023-03-01T05:11:59;34.40;;;22.48;;
55268;SDS011;41131;42.990;21.954;2023-03-01T05:14:26;46.33;;;22.92;;
55268;SDS011;41131;42.990;21.954;2023-03-01T05:16:53;41.60;;;20.33;;
55268;SDS011;41131;42.990;21.954;2023-03-01T05:19:19;28.40;;;17.92;;
55268;SDS011;41131;42.990;21.954;2023-03-01T05:21:47;31.35;;;18.60;;
55268;SDS011;41131;42.990;21.954;2023-03-01T05:24:29;27.27;;;16.73;;
55268;SDS011;41131;42.990;21.954;2023-03-01T05:26:55;26.88;;;17.40;;
55268;SDS011;41131;42.990;21.954;2023-03-01T05:29:22;29.38;;;18.75;;
55268;SDS011;41131;42.990;21.954;2023-03-01T05:32:01;27.10;;;17.27;;
55268;SDS011;41131;42.990;21.954;2023-03-01T05:34:31;30.08;;;19.15;;
55268;SDS011;41131;42.990;21.954;2023-03-01T05:36:58;25.08;;;16.73;;
55268;SDS011;41131;42.990;21.954;2023-03-01T05:39:25;31.33;;;19.50;;
55268;SDS011;41131;42.990;21.954;2023-03-01T05:41:52;26.25;;;16.90;;
55268;SDS011;41131;42.990;21.954;2023-03-01T05:44:18;27.90;;;17.77;;
55268;SDS011;41131;42.990;21.954;2023-03-01T05:46:44;32.15;;;19.77;;
55268;SDS011;41131;42.990;21.954;2023-03-01T05:49:10;30.13;;;18.38;;
55268;SDS011;41131;42.990;21.954;2023-03-01T05:51:38;25.70;;;17.90;;
55268;SDS011;41131;42.990;21.954;2023-03-01T05:54:04;24.50;;;17.20;;
55268;SDS011;41131;42.990;21.954;2023-03-01T05:56:33;23.02;;;15.93;;
55268;SDS011;41131;42.990;21.954;2023-03-01T05:59:00;26.33;;;16.13;;
55268;SDS011;41131;42.990;21.954;2023-03-01T06:01:26;43.05;;;25.42;;
55268;SDS011;41131;42.990;21.954;2023-03-01T06:03:52;109.75;;;52.75;;
55268;SDS011;41131;42.990;21.954;2023-03-01T06:06:19;57.22;;;35.13;;
55268;SDS011;41131;42.990;21.954;2023-03-01T06:08:45;39.08;;;24.83;;
55268;SDS011;41131;42.990;21.954;2023-03-01T06:11:11;33.60;;;22.70;;
55268;SDS011;41131;42.990;21.954;2023-03-01T06:13:37;28.73;;;21.02;;
55268;SDS011;41131;42.990;21.954;2023-03-01T06:16:06;20.92;;;15.32;;
55268;SDS011;41131;42.990;21.954;2023-03-01T06:18:32;22.33;;;14.45;;
55268;SDS011;41131;42.990;21.954;2023-03-01T06:20:59;19.65;;;13.63;;
55268;SDS011;41131;42.990;21.954;2023-03-01T06:23:25;23.27;;;15.30;;
55268;SDS011;41131;42.990;21.954;2023-03-01T06:25:51;41.88;;;26.85;;
55268;SDS011;41131;42.990;21.954;2023-03-01T06:28:17;82.20;;;52.03;;
55268;SDS011;41131;42.990;21.954;2023-03-01T06:30:43;26.20;;;18.48;;
55268;SDS011;41131;42.990;21.954;2023-03-01T06:33:09;24.23;;;16.98;;
55268;SDS011;41131;42.990;21.954;2023-03-01T06:35:35;31.85;;;18.20;;
55268;SDS011;41131;42.990;21.954;2023-03-01T06:38:02;204.90;;;31.17;;
55268;SDS011;41131;42.990;21.954;2023-03-01T06:40:29;35.58;;;20.95;;
55268;SDS011;41131;42.990;21.954;2023-03-01T06:42:56;106.75;;;76.65;;
55268;SDS011;41131;42.990;21.954;2023-03-01T06:45:22;30.55;;;21.25;;
55268;SDS011;41131;42.990;21.954;2023-03-01T06:47:49;25.73;;;17.23;;
55268;SDS011;41131;42.990;21.954;2023-03-01T06:50:15;23.42;;;16.63;;
55268;SDS011;41131;42.990;21.954;2023-03-01T06:52:41;25.80;;;17.10;;
55268;SDS011;41131;42.990;21.954;2023-03-01T06:55:09;27.48;;;18.20;;
55268;SDS011;41131;42.990;21.954;2023-03-01T06:57:36;57.65;;;35.63;;
55268;SDS011;41131;42.990;21.954;2023-03-01T07:00:05;49.17;;;30.38;;
55268;SDS011;41131;42.990;21.954;2023-03-01T07:02:32;73.95;;;39.20;;
55268;SDS011;41131;42.990;21.954;2023-03-01T07:04:58;75.82;;;51.15;;
55268;SDS011;41131;42.990;21.954;2023-03-01T07:07:25;48.85;;;31.10;;
55268;SDS011;41131;42.990;21.954;2023-03-01T07:09:51;41.65;;;27.48;;
55268;SDS011;41131;42.990;21.954;2023-03-01T07:12:18;48.20;;;27.10;;
55268;SDS011;41131;42.990;21.954;2023-03-01T07:14:44;31.73;;;18.25;;
55268;SDS011;41131;42.990;21.954;2023-03-01T07:17:10;79.10;;;47.42;;
55268;SDS011;41131;42.990;21.954;2023-03-01T07:19:36;51.28;;;36.03;;
55268;SDS011;41131;42.990;21.954;2023-03-01T07:22:03;51.65;;;32.20;;
55268;SDS011;41131;42.990;21.954;2023-03-01T07:24:29;60.15;;;43.72;;
55268;SDS011;41131;42.990;21.954;2023-03-01T07:26:55;48.13;;;33.58;;
55268;SDS011;41131;42.990;21.954;2023-03-01T07:29:21;33.13;;;25.08;;
55268;SDS011;41131;42.990;21.954;2023-03-01T07:31:47;49.10;;;35.58;;
55268;SDS011;41131;42.990;21.954;2023-03-01T07:34:13;35.92;;;26.80;;
55268;SDS011;41131;42.990;21.954;2023-03-01T07:36:39;54.45;;;35.55;;
55268;SDS011;41131;42.990;21.954;2023-03-01T07:39:08;42.40;;;27.67;;
55268;SDS011;41131;42.990;21.954;2023-03-01T07:41:34;41.03;;;24.52;;
55268;SDS011;41131;42.990;21.954;2023-03-01T07:44:00;101.47;;;60.97;;
55268;SDS011;41131;42.990;21.954;2023-03-01T07:46:26;115.10;;;69.43;;
55268;SDS011;41131;42.990;21.954;2023-03-01T07:48:52;52.00;;;36.95;;
55268;SDS011;41131;42.990;21.954;2023-03-01T07:51:18;41.65;;;29.83;;
55268;SDS011;41131;42.990;21.954;2023-03-01T07:53:47;53.63;;;32.35;;
55268;SDS011;41131;42.990;21.954;2023-03-01T07:56:14;51.65;;;36.38;;
55268;SDS011;41131;42.990;21.954;2023-03-01T07:58:42;45.25;;;31.95;;
55268;SDS011;41131;42.990;21.954;2023-03-01T08:01:10;43.50;;;29.30;;
55268;SDS011;41131;42.990;21.954;2023-03-01T08:03:36;48.85;;;34.72;;
55268;SDS011;41131;42.990;21.954;2023-03-01T08:06:03;53.75;;;38.75;;
55268;SDS011;41131;42.990;21.954;2023-03-01T08:08:30;70.95;;;46.00;;
55268;SDS011;41131;42.990;21.954;2023-03-01T08:10:57;50.25;;;35.58;;
55268;SDS011;41131;42.990;21.954;2023-03-01T08:13:23;50.67;;;38.20;;
55268;SDS011;41131;42.990;21.954;2023-03-01T08:15:49;53.03;;;39.50;;
55268;SDS011;41131;42.990;21.954;2023-03-01T08:18:16;39.58;;;28.95;;
55268;SDS011;41131;42.990;21.954;2023-03-01T08:20:42;45.22;;;30.52;;
55268;SDS011;41131;42.990;21.954;2023-03-01T08:23:08;35.03;;;27.10;;
55268;SDS011;41131;42.990;21.954;2023-03-01T08:25:34;47.53;;;25.83;;
55268;SDS011;41131;42.990;21.954;2023-03-01T08:28:00;45.75;;;31.55;;
55268;SDS011;41131;42.990;21.954;2023-03-01T08:30:26;41.03;;;31.70;;
55268;SDS011;41131;42.990;21.954;2023-03-01T08:32:54;60.38;;;44.58;;
55268;SDS011;41131;42.990;21.954;2023-03-01T08:35:21;41.38;;;30.52;;
55268;SDS011;41131;42.990;21.954;2023-03-01T08:37:47;37.08;;;27.83;;
55268;SDS011;41131;42.990;21.954;2023-03-01T08:40:13;35.63;;;26.40;;
55268;SDS011;41131;42.990;21.954;2023-03-01T08:42:40;38.03;;;29.40;;
55268;SDS011;41131;42.990;21.954;2023-03-01T08:45:08;38.88;;;21.00;;
55268;SDS011;41131;42.990;21.954;2023-03-01T08:47:35;36.78;;;26.38;;
55268;SDS011;41131;42.990;21.954;2023-03-01T08:50:01;33.67;;;27.27;;
55268;SDS011;41131;42.990;21.954;2023-03-01T08:52:27;36.65;;;27.58;;
55268;SDS011;41131;42.990;21.954;2023-03-01T08:54:55;40.30;;;30.30;;
55268;SDS011;41131;42.990;21.954;2023-03-01T08:57:21;48.00;;;31.20;;
55268;SDS011;41131;42.990;21.954;2023-03-01T08:59:47;49.40;;;29.80;;
55268;SDS011;41131;42.990;21.954;2023-03-01T09:02:14;33.65;;;25.88;;
55268;SDS011;41131;42.990;21.954;2023-03-01T09:04:40;35.85;;;29.67;;
55268;SDS011;41131;42.990;21.954;2023-03-01T09:07:06;39.70;;;29.38;;
55268;SDS011;41131;42.990;21.954;2023-03-01T09:09:33;38.67;;;29.17;;
55268;SDS011;41131;42.990;21.954;2023-03-01T09:11:59;53.55;;;45.85;;
55268;SDS011;41131;42.990;21.954;2023-03-01T09:14:25;35.90;;;27.48;;
55268;SDS011;41131;42.990;21.954;2023-03-01T09:16:51;43.85;;;35.03;;
55268;SDS011;41131;42.990;21.954;2023-03-01T09:19:17;59.85;;;34.72;;
55268;SDS011;41131;42.990;21.954;2023-03-01T09:21:43;53.88;;;29.77;;
55268;SDS011;41131;42.990;21.954;2023-03-01T09:24:21;45.33;;;26.80;;
55268;SDS011;41131;42.990;21.954;2023-03-01T09:26:47;35.28;;;28.35;;
55268;SDS011;41131;42.990;21.954;2023-03-01T09:29:14;76.53;;;29.65;;
55268;SDS011;41131;42.990;21.954;2023-03-01T09:31:40;37.88;;;28.23;;
55268;SDS011;41131;42.990;21.954;2023-03-01T09:34:07;35.13;;;24.85;;
55268;SDS011;41131;42.990;21.954;2023-03-01T09:36:33;53.17;;;32.28;;
55268;SDS011;41131;42.990;21.954;2023-03-01T09:38:59;48.03;;;37.13;;
55268;SDS011;41131;42.990;21.954;2023-03-01T09:44:28;35.75;;;29.85;;
55268;SDS011;41131;42.990;21.954;2023-03-01T09:46:47;41.53;;;29.13;;
55268;SDS011;41131;42.990;21.954;2023-03-01T09:49:24;39.55;;;26.38;;
55268;SDS011;41131;42.990;21.954;2023-03-01T09:54:35;39.35;;;27.70;;
55268;SDS011;41131;42.990;21.954;2023-03-01T10:02:33;65.28;;;41.90;;
55268;SDS011;41131;42.990;21.954;2023-03-01T10:05:14;47.10;;;34.35;;
55268;SDS011;41131;42.990;21.954;2023-03-01T10:08:02;112.18;;;59.97;;
55268;SDS011;41131;42.990;21.954;2023-03-01T10:10:35;47.08;;;32.20;;
55268;SDS011;41131;42.990;21.954;2023-03-01T10:13:04;45.28;;;32.10;;
55268;SDS011;41131;42.990;21.954;2023-03-01T10:15:39;63.72;;;43.22;;
55268;SDS011;41131;42.990;21.954;2023-03-01T10:18:11;37.13;;;29.25;;
55268;SDS011;41131;42.990;21.954;2023-03-01T10:23:13;42.38;;;32.65;;
55268;SDS011;41131;42.990;21.954;2023-03-01T10:30:41;38.85;;;28.98;;
55268;SDS011;41131;42.990;21.954;2023-03-01T10:33:22;44.75;;;31.65;;
55268;SDS011;41131;42.990;21.954;2023-03-01T10:35:49;43.25;;;32.28;;
55268;SDS011;41131;42.990;21.954;2023-03-01T10:38:15;49.78;;;32.47;;
55268;SDS011;41131;42.990;21.954;2023-03-01T10:40:52;53.75;;;27.15;;
55268;SDS011;41131;42.990;21.954;2023-03-01T10:43:19;36.78;;;27.98;;
55268;SDS011;41131;42.990;21.954;2023-03-01T10:45:45;50.83;;;29.08;;
55268;SDS011;41131;42.990;21.954;2023-03-01T10:48:12;50.85;;;36.92;;
55268;SDS011;41131;42.990;21.954;2023-03-01T10:50:42;33.90;;;25.48;;
55268;SDS011;41131;42.990;21.954;2023-03-01T10:53:32;45.30;;;28.65;;
55268;SDS011;41131;42.990;21.954;2023-03-01T10:55:59;44.97;;;33.08;;
55268;SDS011;41131;42.990;21.954;2023-03-01T10:58:26;71.85;;;52.15;;
55268;SDS011;41131;42.990;21.954;2023-03-01T11:00:59;60.70;;;37.80;;
55268;SDS011;41131;42.990;21.954;2023-03-01T11:11:07;44.80;;;31.30;;
55268;SDS011;41131;42.990;21.954;2023-03-01T11:14:00;49.17;;;36.33;;
55268;SDS011;41131;42.990;21.954;2023-03-01T11:18:58;46.35;;;33.70;;
55268;SDS011;41131;42.990;21.954;2023-03-01T11:21:25;39.20;;;29.70;;
55268;SDS011;41131;42.990;21.954;2023-03-01T11:23:52;43.17;;;32.38;;
55268;SDS011;41131;42.990;21.954;2023-03-01T11:26:18;113.05;;;82.90;;
55268;SDS011;41131;42.990;21.954;2023-03-01T11:28:46;53.75;;;39.35;;
55268;SDS011;41131;42.990;21.954;2023-03-01T11:31:14;44.75;;;31.92;;
55268;SDS011;41131;42.990;21.954;2023-03-01T11:33:46;32.85;;;27.08;;
55268;SDS011;41131;42.990;21.954;2023-03-01T11:39:02;47.80;;;33.70;;
55268;SDS011;41131;42.990;21.954;2023-03-01T11:41:30;46.42;;;31.63;;
55268;SDS011;41131;42.990;21.954;2023-03-01T11:44:30;60.17;;;44.88;;
55268;SDS011;41131;42.990;21.954;2023-03-01T11:49:19;45.97;;;33.95;;
55268;SDS011;41131;42.990;21.954;2023-03-01T11:54:21;45.08;;;32.95;;
55268;SDS011;41131;42.990;21.954;2023-03-01T11:56:55;52.97;;;35.22;;
55268;SDS011;41131;42.990;21.954;2023-03-01T12:01:51;45.60;;;34.58;;
55268;SDS011;41131;42.990;21.954;2023-03-01T12:09:23;37.20;;;29.40;;
55268;SDS011;41131;42.990;21.954;2023-03-01T12:14:50;38.90;;;30.08;;
55268;SDS011;41131;42.990;21.954;2023-03-01T12:34:21;38.83;;;26.25;;
55268;SDS011;41131;42.990;21.954;2023-03-01T12:39:28;33.58;;;25.73;;
55268;SDS011;41131;42.990;21.954;2023-03-01T12:42:22;41.15;;;33.00;;
55268;SDS011;41131;42.990;21.954;2023-03-01T12:49:55;71.05;;;52.42;;
55268;SDS011;41131;42.990;21.954;2023-03-01T12:52:23;74.40;;;58.40;;
55268;SDS011;41131;42.990;21.954;2023-03-01T12:54:52;57.80;;;44.05;;
55268;SDS011;41131;42.990;21.954;2023-03-01T12:57:40;44.60;;;33.88;;
55268;SDS011;41131;42.990;21.954;2023-03-01T13:02:40;63.28;;;45.22;;
55268;SDS011;41131;42.990;21.954;2023-03-01T13:07:41;134.70;;;81.63;;
55268;SDS011;41131;42.990;21.954;2023-03-01T13:10:21;89.97;;;57.67;;
55268;SDS011;41131;42.990;21.954;2023-03-01T13:17:49;133.10;;;66.15;;
55268;SDS011;41131;42.990;21.954;2023-03-01T13:20:17;72.32;;;47.53;;
55268;SDS011;41131;42.990;21.954;2023-03-01T13:22:44;68.00;;;59.17;;
55268;SDS011;41131;42.990;21.954;2023-03-01T13:25:13;50.28;;;33.08;;
55268;SDS011;41131;42.990;21.954;2023-03-01T13:27:40;67.95;;;40.25;;
55268;SDS011;41131;42.990;21.954;2023-03-01T13:30:34;63.97;;;41.65;;
55268;SDS011;41131;42.990;21.954;2023-03-01T13:32:52;67.18;;;45.47;;
55268;SDS011;41131;42.990;21.954;2023-03-01T13:35:41;61.40;;;41.55;;
55268;SDS011;41131;42.990;21.954;2023-03-01T13:43:28;71.88;;;50.35;;
55268;SDS011;41131;42.990;21.954;2023-03-01T13:45:54;59.55;;;47.15;;
55268;SDS011;41131;42.990;21.954;2023-03-01T13:48:24;62.33;;;47.10;;
55268;SDS011;41131;42.990;21.954;2023-03-01T13:50:53;74.10;;;53.75;;
55268;SDS011;41131;42.990;21.954;2023-03-01T13:53:22;38.05;;;29.50;;
55268;SDS011;41131;42.990;21.954;2023-03-01T13:55:50;34.33;;;27.35;;
55268;SDS011;41131;42.990;21.954;2023-03-01T14:00:45;43.08;;;34.78;;
55268;SDS011;41131;42.990;21.954;2023-03-01T14:03:15;41.72;;;32.78;;
55268;SDS011;41131;42.990;21.954;2023-03-01T14:05:43;48.08;;;32.88;;
55268;SDS011;41131;42.990;21.954;2023-03-01T14:08:20;45.13;;;35.10;;
55268;SDS011;41131;42.990;21.954;2023-03-01T14:11:03;65.07;;;49.60;;
55268;SDS011;41131;42.990;21.954;2023-03-01T14:16:05;41.38;;;30.65;;
55268;SDS011;41131;42.990;21.954;2023-03-01T14:18:39;69.07;;;44.50;;
55268;SDS011;41131;42.990;21.954;2023-03-01T14:21:12;48.92;;;34.85;;
55268;SDS011;41131;42.990;21.954;2023-03-01T14:23:39;43.45;;;34.33;;
55268;SDS011;41131;42.990;21.954;2023-03-01T14:26:07;57.08;;;44.35;;
55268;SDS011;41131;42.990;21.954;2023-03-01T14:28:34;110.53;;;75.18;;
55268;SDS011;41131;42.990;21.954;2023-03-01T14:31:05;45.97;;;34.08;;
55268;SDS011;41131;42.990;21.954;2023-03-01T14:33:54;50.00;;;39.13;;
55268;SDS011;41131;42.990;21.954;2023-03-01T14:36:25;34.78;;;26.35;;
55268;SDS011;41131;42.990;21.954;2023-03-01T14:38:51;31.65;;;25.88;;
55268;SDS011;41131;42.990;21.954;2023-03-01T14:41:21;36.30;;;30.45;;
55268;SDS011;41131;42.990;21.954;2023-03-01T14:43:53;32.97;;;27.83;;
55268;SDS011;41131;42.990;21.954;2023-03-01T14:48:53;41.72;;;29.05;;
55268;SDS011;41131;42.990;21.954;2023-03-01T14:51:20;38.25;;;30.20;;
55268;SDS011;41131;42.990;21.954;2023-03-01T14:53:46;51.58;;;31.00;;
55268;SDS011;41131;42.990;21.954;2023-03-01T14:56:13;51.72;;;38.92;;
55268;SDS011;41131;42.990;21.954;2023-03-01T14:58:42;49.25;;;36.10;;
55268;SDS011;41131;42.990;21.954;2023-03-01T15:01:13;50.63;;;39.00;;
55268;SDS011;41131;42.990;21.954;2023-03-01T15:03:41;74.63;;;49.28;;
55268;SDS011;41131;42.990;21.954;2023-03-01T15:06:09;48.55;;;34.25;;
55268;SDS011;41131;42.990;21.954;2023-03-01T15:08:37;47.17;;;36.83;;
55268;SDS011;41131;42.990;21.954;2023-03-01T15:13:51;55.63;;;42.05;;
55268;SDS011;41131;42.990;21.954;2023-03-01T15:18:52;117.80;;;78.65;;
55268;SDS011;41131;42.990;21.954;2023-03-01T15:21:23;85.63;;;57.60;;
55268;SDS011;41131;42.990;21.954;2023-03-01T15:24:02;63.28;;;46.15;;
55268;SDS011;41131;42.990;21.954;2023-03-01T15:26:31;56.50;;;40.22;;
55268;SDS011;41131;42.990;21.954;2023-03-01T15:28:59;75.25;;;45.17;;
55268;SDS011;41131;42.990;21.954;2023-03-01T15:31:26;59.15;;;42.70;;
55268;SDS011;41131;42.990;21.954;2023-03-01T15:34:06;89.43;;;62.78;;
55268;SDS011;41131;42.990;21.954;2023-03-01T15:36:38;89.20;;;62.28;;
55268;SDS011;41131;42.990;21.954;2023-03-01T15:39:05;204.13;;;139.63;;
55268;SDS011;41131;42.990;21.954;2023-03-01T15:41:49;96.90;;;64.45;;
55268;SDS011;41131;42.990;21.954;2023-03-01T15:44:16;159.55;;;99.65;;
55268;SDS011;41131;42.990;21.954;2023-03-01T15:46:45;82.35;;;57.30;;
55268;SDS011;41131;42.990;21.954;2023-03-01T15:49:44;78.53;;;55.67;;
55268;SDS011;41131;42.990;21.954;2023-03-01T15:52:04;72.43;;;51.03;;
55268;SDS011;41131;42.990;21.954;2023-03-01T15:54:31;85.35;;;57.08;;
55268;SDS011;41131;42.990;21.954;2023-03-01T15:56:59;102.32;;;60.33;;
55268;SDS011;41131;42.990;21.954;2023-03-01T15:59:25;78.03;;;55.63;;
55268;SDS011;41131;42.990;21.954;2023-03-01T16:01:51;79.40;;;56.60;;
55268;SDS011;41131;42.990;21.954;2023-03-01T16:04:18;80.80;;;62.08;;
55268;SDS011;41131;42.990;21.954;2023-03-01T16:06:48;86.43;;;65.25;;
55268;SDS011;41131;42.990;21.954;2023-03-01T16:09:20;89.18;;;65.88;;
55268;SDS011;41131;42.990;21.954;2023-03-01T16:11:46;50.88;;;38.38;;
55268;SDS011;41131;42.990;21.954;2023-03-01T16:14:13;48.83;;;36.25;;